West Wellow, United Kingdom
Current Conditions -  °F | °C
As of 4:50 PM on Wednesday 22 Oct 2014 (Local Time) from EGHI Reporting Station
Broken Clouds Broken Clouds  
Wind Chill: 54°   Ceiling: 3200
Heat Index: 54°   Visibility: 6mi
Dew Point: 45°   Wind: 5mph
Humidity: 72%   Direction: 270°W
Pressure: 30.27"   Gusts: NA
Location:  50.97°N, 1.58°W
Report Text: EGHI 221550Z 27004KT 230V300 9999 FEW024 BKN032 12/07 Q1025
Loading
Personal Weather Stations






























Interactive Weather Map
Tropical Storm Tracking
New forecast layout! Learn more

10-Day Weather Forecast

Advertisements
Track Severe Weather on mobile